Shantou, China
Current Conditions -  °F | °C
As of 3:00 PM on Friday 31 Oct 2014 (Local Time) from ZGOW Reporting Station
Clear Clear  
Wind Chill: 86°   Ceiling: Unl
Heat Index: 88°   Visibility: 5mi
Dew Point: 66°   Wind: 4mph
Humidity: 51%   Direction: 360°N
Pressure: 29.88"   Gusts: NA
Location:  23.37°N, 116.67°E
Report Text: ZGOW 310700Z 36002MPS 290V040 8000 NSC 30/19 Q1012 NOSIG
Loading
Personal Weather Stations






























Interactive Weather Map
Tropical Storm Tracking
New forecast layout! Learn more

10-Day Weather Forecast

Advertisements
Track Severe Weather on mobile